createdAt,value
2022-08-12T00:02:24.808Z,19.47
2022-08-12T00:05:18.910Z,19.46
2022-08-12T00:08:16.512Z,19.44
2022-08-12T00:11:12.437Z,19.41
2022-08-12T00:14:09.109Z,19.37
2022-08-12T00:17:19.232Z,19.32
2022-08-12T00:20:29.717Z,19.28
2022-08-12T00:23:21.080Z,19.24
2022-08-12T00:26:24.388Z,19.24
2022-08-12T00:29:34.429Z,19.21
2022-08-12T00:33:03.265Z,19.19
2022-08-12T00:36:08.044Z,19.16
2022-08-12T00:39:18.699Z,19.13
2022-08-12T00:42:11.745Z,19.11
2022-08-12T00:44:53.895Z,19.10
2022-08-12T00:47:33.735Z,19.11
2022-08-12T00:50:28.111Z,19.11
2022-08-12T00:53:31.292Z,19.07
2022-08-12T00:56:10.207Z,19.04
2022-08-12T00:59:03.797Z,19.00
2022-08-12T01:02:00.999Z,18.97
2022-08-12T01:04:57.538Z,18.95
2022-08-12T01:07:51.727Z,18.90
2022-08-12T01:11:19.330Z,18.82
2022-08-12T01:14:29.144Z,18.79
2022-08-12T01:17:22.211Z,18.75
2022-08-12T01:20:04.913Z,18.72
2022-08-12T01:23:06.498Z,18.68
2022-08-12T01:25:56.197Z,18.66
2022-08-12T01:28:42.994Z,18.62
2022-08-12T01:31:41.637Z,18.58
2022-08-12T01:34:37.602Z,18.56
2022-08-12T01:37:22.806Z,18.52
2022-08-12T01:40:34.440Z,18.49
2022-08-12T01:43:47.580Z,18.46
2022-08-12T01:47:05.680Z,18.40
2022-08-12T01:50:16.721Z,18.35
2022-08-12T01:53:10.008Z,18.28
2022-08-12T01:56:03.131Z,18.24
2022-08-12T01:59:12.563Z,18.19
2022-08-12T02:02:27.562Z,18.17
2022-08-12T02:05:33.869Z,18.14
2022-08-12T02:08:56.251Z,18.12
2022-08-12T02:11:47.592Z,18.11
2022-08-12T02:14:51.467Z,18.09
2022-08-12T02:17:57.004Z,18.05
2022-08-12T02:20:51.958Z,18.02
2022-08-12T02:23:34.249Z,17.98
2022-08-12T02:26:39.442Z,17.97
2022-08-12T02:29:33.275Z,17.93
2022-08-12T02:32:22.940Z,17.91
2022-08-12T02:35:14.837Z,17.89
2022-08-12T02:38:09.182Z,17.88
2022-08-12T02:41:06.403Z,17.85
2022-08-12T02:43:59.890Z,17.82
2022-08-12T02:47:18.273Z,17.81
2022-08-12T02:50:20.980Z,17.80
2022-08-12T02:53:10.703Z,17.78
2022-08-12T02:55:49.553Z,17.77
2022-08-12T02:58:33.087Z,17.77
2022-08-12T03:01:48.431Z,17.75
2022-08-12T03:04:43.437Z,17.72
2022-08-12T03:07:49.262Z,17.69
2022-08-12T03:11:23.077Z,17.66
2022-08-12T03:14:04.233Z,17.65
2022-08-12T03:17:29.231Z,17.62
2022-08-12T03:20:09.999Z,17.62
2022-08-12T03:23:23.059Z,17.60
2022-08-12T03:26:22.235Z,17.59
2022-08-12T03:29:52.115Z,17.57
2022-08-12T03:33:40.953Z,17.57
2022-08-12T03:36:35.535Z,17.56
2022-08-12T03:39:46.863Z,17.54
2022-08-12T03:43:14.643Z,17.52
2022-08-12T03:47:12.885Z,17.50
2022-08-12T03:50:08.734Z,17.46
2022-08-12T03:53:56.202Z,17.43
2022-08-12T03:57:12.593Z,17.40
2022-08-12T04:00:42.107Z,17.37
2022-08-12T04:03:43.171Z,17.33
2022-08-12T04:06:44.848Z,17.31
2022-08-12T04:09:22.122Z,17.27
2022-08-12T04:12:09.697Z,17.24
2022-08-12T04:15:14.020Z,17.20
2022-08-12T04:18:23.913Z,17.17
2022-08-12T04:22:01.625Z,17.13
2022-08-12T04:24:40.895Z,17.11
2022-08-12T04:27:19.173Z,17.07
2022-08-12T04:30:29.374Z,17.06
2022-08-12T04:32:59.138Z,17.04
2022-08-12T04:36:08.690Z,17.03
2022-08-12T04:39:19.008Z,17.00
2022-08-12T04:42:14.331Z,16.96
2022-08-12T04:45:13.582Z,16.94
2022-08-12T04:48:07.837Z,16.92
2022-08-12T04:51:17.708Z,16.91
2022-08-12T04:53:52.726Z,16.89
2022-08-12T04:56:43.506Z,16.88
2022-08-12T05:00:16.494Z,16.86
2022-08-12T05:03:06.943Z,16.85
2022-08-12T05:06:09.423Z,16.85
2022-08-12T05:08:54.703Z,16.85
2022-08-12T05:11:37.268Z,16.85
2022-08-12T05:14:23.450Z,16.86
2022-08-12T05:17:32.729Z,16.87
2022-08-12T05:20:16.584Z,16.87
2022-08-12T05:23:12.707Z,16.87
2022-08-12T05:26:02.514Z,16.85
2022-08-12T05:30:05.631Z,16.85
2022-08-12T05:32:21.191Z,16.84
2022-08-12T05:35:30.408Z,16.83
2022-08-12T05:38:57.972Z,16.83
2022-08-12T05:41:43.978Z,16.84
2022-08-12T05:44:33.147Z,16.86
2022-08-12T05:47:07.852Z,16.87
2022-08-12T05:49:58.890Z,16.87
2022-08-12T05:52:41.872Z,16.89
2022-08-12T05:55:36.314Z,16.91
2022-08-12T05:58:27.972Z,16.93
2022-08-12T06:02:10.592Z,16.95
2022-08-12T06:04:45.201Z,16.96
2022-08-12T06:08:05.376Z,16.97
2022-08-12T06:10:56.590Z,17.00
2022-08-12T06:13:52.746Z,17.04
2022-08-12T06:16:50.882Z,17.09
2022-08-12T06:20:28.138Z,17.15
2022-08-12T06:23:11.826Z,17.23
2022-08-12T06:25:53.657Z,17.30
2022-08-12T06:28:45.025Z,17.38
2022-08-12T06:31:54.299Z,17.44
2022-08-12T06:35:26.534Z,17.51
2022-08-12T06:37:56.971Z,17.59
2022-08-12T06:41:06.246Z,17.66
2022-08-12T06:44:20.018Z,17.76
2022-08-12T06:47:08.921Z,17.84
2022-08-12T06:49:58.050Z,17.93
2022-08-12T06:52:47.186Z,18.01
2022-08-12T06:55:30.195Z,18.09
2022-08-12T06:58:24.560Z,18.18
2022-08-12T07:01:07.467Z,18.25
2022-08-12T07:04:01.871Z,18.35
2022-08-12T07:07:07.527Z,18.44
2022-08-12T07:10:17.498Z,18.56
2022-08-12T07:13:09.048Z,18.66
2022-08-12T07:15:38.819Z,18.75
2022-08-12T07:18:32.074Z,18.85
2022-08-12T07:22:00.002Z,18.96
2022-08-12T07:24:32.391Z,19.06
2022-08-12T07:27:11.281Z,19.15
2022-08-12T07:30:20.486Z,19.26
2022-08-12T07:33:13.283Z,19.38
2022-08-12T07:35:44.854Z,19.57
2022-08-12T07:38:29.141Z,19.89
2022-08-12T07:41:03.619Z,20.48
2022-08-12T07:43:42.658Z,21.19
2022-08-12T07:46:13.868Z,21.90
2022-08-12T07:48:45.280Z,22.64
2022-08-12T07:51:25.164Z,23.40
2022-08-12T07:54:03.054Z,24.18
2022-08-12T07:56:33.176Z,24.89
2022-08-12T07:59:02.627Z,25.56
2022-08-12T08:01:32.686Z,26.09
2022-08-12T08:04:19.976Z,26.81
2022-08-12T08:06:50.440Z,27.67
2022-08-12T08:09:22.895Z,28.47
2022-08-12T08:12:19.230Z,29.16
2022-08-12T08:14:55.833Z,30.01
2022-08-12T08:17:25.348Z,30.58
2022-08-12T08:20:03.153Z,31.08
2022-08-12T08:22:41.696Z,31.71
2022-08-12T08:25:35.666Z,32.39
2022-08-12T08:28:04.254Z,33.06
2022-08-12T08:30:40.701Z,33.47
2022-08-12T08:33:24.788Z,34.06
2022-08-12T08:36:06.182Z,34.64
2022-08-12T08:38:37.346Z,35.05
2022-08-12T08:42:18.804Z,35.50
2022-08-12T08:44:13.766Z,36.12
2022-08-12T08:46:47.479Z,36.56
2022-08-12T08:49:17.671Z,37.05
2022-08-12T08:51:46.889Z,37.51
2022-08-12T08:54:15.383Z,37.95
2022-08-12T08:56:53.211Z,38.34
2022-08-12T08:59:24.502Z,38.79
2022-08-12T09:02:22.955Z,39.27
2022-08-12T09:05:13.207Z,39.82
2022-08-12T09:08:39.258Z,40.15
2022-08-12T09:12:07.181Z,40.06
2022-08-12T09:14:18.791Z,40.31
2022-08-12T09:17:00.529Z,40.64
2022-08-12T09:19:31.571Z,40.71
2022-08-12T09:22:04.760Z,40.79
2022-08-12T09:24:33.898Z,41.02
2022-08-12T09:27:24.487Z,41.37
2022-08-12T09:30:41.950Z,41.57
2022-08-12T09:33:19.390Z,41.49
2022-08-12T09:36:05.594Z,41.83
2022-08-12T09:38:37.140Z,42.14
2022-08-12T09:42:33.858Z,42.42
2022-08-12T09:44:39.546Z,42.29
2022-08-12T09:47:29.283Z,42.24
2022-08-12T09:49:59.089Z,42.38
2022-08-12T09:53:14.779Z,42.48
2022-08-12T09:56:58.634Z,42.74
2022-08-12T10:00:15.816Z,42.92
2022-08-12T10:02:49.761Z,42.89
2022-08-12T10:05:00.126Z,43.08
2022-08-12T10:07:40.099Z,43.28
2022-08-12T10:10:22.994Z,43.41
2022-08-12T10:13:35.216Z,43.46
2022-08-12T10:16:21.715Z,43.53
2022-08-12T10:18:56.618Z,43.90
2022-08-12T10:21:37.631Z,44.00
2022-08-12T10:24:20.390Z,43.74
2022-08-12T10:27:08.308Z,43.71
2022-08-12T10:30:38.976Z,44.11
2022-08-12T10:32:43.673Z,44.65
2022-08-12T10:35:20.148Z,45.07
2022-08-12T10:38:38.983Z,45.21
2022-08-12T10:41:09.341Z,45.55
2022-08-12T10:43:55.156Z,45.61
2022-08-12T10:46:52.257Z,45.57
2022-08-12T10:50:04.663Z,45.48
2022-08-12T10:52:47.303Z,45.20
2022-08-12T10:55:13.397Z,45.13
2022-08-12T10:58:14.974Z,45.24
2022-08-12T11:00:45.348Z,45.23
2022-08-12T11:04:26.472Z,44.76
2022-08-12T11:07:09.388Z,44.59
2022-08-12T11:09:55.786Z,44.80
2022-08-12T11:12:56.718Z,45.02
2022-08-12T11:15:19.208Z,45.59
2022-08-12T11:17:53.499Z,46.16
2022-08-12T11:20:30.547Z,46.60
2022-08-12T11:23:26.142Z,46.92
2022-08-12T11:26:05.667Z,47.02
2022-08-12T11:28:37.636Z,46.51
2022-08-12T11:31:55.826Z,46.09
2022-08-12T11:34:53.266Z,45.94
2022-08-12T11:37:57.702Z,45.75
2022-08-12T11:40:28.814Z,45.79
2022-08-12T11:43:01.864Z,45.81
2022-08-12T11:45:57.685Z,46.14
2022-08-12T11:48:27.325Z,46.39
2022-08-12T11:51:08.005Z,46.35
2022-08-12T11:53:59.428Z,46.46
2022-08-12T12:03:43.886Z,45.93
2022-08-12T12:06:16.820Z,45.77
2022-08-12T12:08:51.330Z,45.73
2022-08-12T12:11:27.793Z,45.79
2022-08-12T12:14:38.043Z,45.95
2022-08-12T12:17:15.333Z,45.95
2022-08-12T12:19:46.940Z,45.92
2022-08-12T12:22:23.583Z,45.94
2022-08-12T12:25:13.316Z,45.84
2022-08-12T12:28:04.574Z,45.63
2022-08-12T12:30:38.984Z,45.60
2022-08-12T12:33:56.836Z,45.83
2022-08-12T12:36:24.038Z,46.23
2022-08-12T12:39:00.252Z,46.19
2022-08-12T12:42:42.000Z,46.01
2022-08-12T12:44:25.673Z,45.75
2022-08-12T12:47:26.090Z,45.52
2022-08-12T12:49:56.910Z,45.31
2022-08-12T12:52:26.822Z,45.24
2022-08-12T12:54:58.165Z,45.61
2022-08-12T12:57:36.095Z,46.16
2022-08-12T13:00:18.407Z,46.27
2022-08-12T13:02:53.767Z,46.32
2022-08-12T13:05:42.332Z,46.37
2022-08-12T13:08:28.208Z,46.33
2022-08-12T13:11:41.400Z,46.45
2022-08-12T13:14:55.967Z,46.36
2022-08-12T13:18:02.513Z,46.34
2022-08-12T13:21:00.898Z,46.17
2022-08-12T13:40:22.297Z,44.87
2022-08-12T13:43:01.542Z,44.65
2022-08-12T13:45:36.980Z,44.54
2022-08-12T13:48:09.953Z,44.32
2022-08-12T13:50:54.609Z,44.22
2022-08-12T13:53:57.665Z,44.06
2022-08-12T13:56:37.961Z,43.70
2022-08-12T14:02:22.601Z,42.92
2022-08-12T14:05:37.784Z,42.54
2022-08-12T14:08:05.696Z,42.15
2022-08-12T14:10:36.709Z,41.76
2022-08-12T14:14:02.532Z,41.09
2022-08-12T14:16:02.772Z,40.67
2022-08-12T14:18:49.211Z,40.50
2022-08-12T14:22:04.439Z,40.12
2022-08-12T14:24:53.660Z,39.75
2022-08-12T14:28:02.668Z,39.28
2022-08-12T14:31:05.894Z,38.97
2022-08-12T14:33:52.254Z,38.73
2022-08-12T14:37:13.096Z,38.45
2022-08-12T14:40:04.137Z,37.85
2022-08-12T14:42:33.219Z,37.53
2022-08-12T14:45:49.072Z,37.27
2022-08-12T14:48:29.416Z,36.94
2022-08-12T14:52:07.892Z,36.71
2022-08-12T14:57:19.029Z,36.08
2022-08-12T15:00:05.270Z,35.69
2022-08-12T15:02:37.681Z,35.30
2022-08-12T15:06:05.296Z,35.14
2022-08-12T15:08:38.827Z,34.94
2022-08-12T15:11:54.962Z,34.74
2022-08-12T15:14:47.677Z,34.38
2022-08-12T15:17:38.195Z,34.08
2022-08-12T15:21:11.110Z,33.90
2022-08-12T15:23:45.462Z,33.63
2022-08-12T15:27:14.891Z,33.46
2022-08-12T15:30:24.408Z,33.23
2022-08-12T15:33:12.858Z,32.99
2022-08-12T15:35:54.949Z,32.62
2022-08-12T15:38:32.196Z,32.38
2022-08-12T15:44:51.365Z,32.26
2022-08-12T15:47:36.190Z,32.11
2022-08-12T15:54:49.988Z,31.74
2022-08-12T15:57:24.215Z,31.69
2022-08-12T16:00:06.567Z,31.74
2022-08-12T16:02:50.485Z,31.74
2022-08-12T16:06:12.623Z,31.61
2022-08-12T16:08:53.484Z,31.25
2022-08-12T16:11:22.855Z,31.04
2022-08-12T16:13:57.110Z,30.94
2022-08-12T16:16:35.041Z,30.77
2022-08-12T16:19:09.665Z,30.59
2022-08-12T16:21:59.009Z,30.46
2022-08-12T16:24:28.277Z,30.35
2022-08-12T16:26:58.539Z,30.23
2022-08-12T16:29:52.190Z,30.07
2022-08-12T16:32:22.647Z,29.89
2022-08-12T16:34:57.572Z,29.62
2022-08-12T16:38:04.767Z,29.44
2022-08-12T16:40:15.789Z,29.30
2022-08-12T16:42:53.582Z,29.19
2022-08-12T16:46:05.137Z,29.04
2022-08-12T16:48:35.030Z,28.81
2022-08-12T16:51:09.333Z,28.61
2022-08-12T16:53:44.024Z,28.49
2022-08-12T16:56:15.514Z,28.30
2022-08-12T16:58:44.661Z,28.09
2022-08-12T17:01:14.047Z,28.04
2022-08-12T17:03:52.041Z,27.94
2022-08-12T17:06:28.072Z,27.87
2022-08-12T17:09:02.065Z,27.88
2022-08-12T17:11:32.228Z,27.87
2022-08-12T17:14:03.293Z,27.90
2022-08-12T17:16:36.863Z,27.86
2022-08-12T17:19:09.734Z,27.81
2022-08-12T17:22:01.201Z,27.76
2022-08-12T17:24:32.102Z,27.72
2022-08-12T17:27:05.258Z,27.69
2022-08-12T17:30:02.510Z,27.67
2022-08-12T17:32:30.786Z,27.68
2022-08-12T17:35:18.442Z,27.62
2022-08-12T17:37:50.380Z,27.51
2022-08-12T17:40:35.940Z,27.41
2022-08-12T17:43:56.008Z,27.30
2022-08-12T17:45:59.835Z,27.19
2022-08-12T17:48:34.662Z,27.09
2022-08-12T17:51:12.327Z,26.96
2022-08-12T17:54:11.499Z,26.86
2022-08-12T17:56:36.880Z,26.75
2022-08-12T17:59:08.440Z,26.63
2022-08-12T18:01:43.819Z,26.49
2022-08-12T18:04:21.451Z,26.29
2022-08-12T18:06:53.877Z,26.19
2022-08-12T18:09:32.127Z,26.09
2022-08-12T18:12:35.393Z,26.02
2022-08-12T18:15:10.453Z,25.97
2022-08-12T18:18:02.884Z,25.94
2022-08-12T18:20:36.595Z,25.87
2022-08-12T18:23:09.756Z,25.80
2022-08-12T18:26:14.702Z,25.73
2022-08-12T18:28:56.207Z,25.66
2022-08-12T18:31:29.038Z,25.55
2022-08-12T18:34:18.184Z,25.50
2022-08-12T18:36:51.944Z,25.46
2022-08-12T18:39:24.278Z,25.38
2022-08-12T18:42:01.451Z,25.26
2022-08-12T18:44:45.367Z,25.14
2022-08-12T18:47:14.912Z,25.06
2022-08-12T18:50:04.045Z,24.92
2022-08-12T18:52:48.758Z,24.82
2022-08-12T18:55:20.327Z,24.70
2022-08-12T18:58:08.382Z,24.62
2022-08-12T19:00:43.293Z,24.53
2022-08-12T19:03:38.879Z,24.43
2022-08-12T19:06:08.810Z,24.38
2022-08-12T19:08:47.119Z,24.31
2022-08-12T19:11:35.165Z,24.24
2022-08-12T19:14:27.582Z,24.16
2022-08-12T19:16:58.544Z,24.13
2022-08-12T19:19:27.560Z,24.10
2022-08-12T19:22:28.949Z,24.06
2022-08-12T19:25:17.646Z,23.97
2022-08-12T19:27:51.758Z,23.87
2022-08-12T19:30:43.690Z,23.77
2022-08-12T19:33:20.905Z,23.72
2022-08-12T19:36:24.572Z,23.66
2022-08-12T19:38:56.498Z,23.59
2022-08-12T19:41:55.890Z,23.54
2022-08-12T19:44:27.489Z,23.48
2022-08-12T19:47:00.195Z,23.43
2022-08-12T19:49:45.420Z,23.38
2022-08-12T19:52:21.058Z,23.31
2022-08-12T19:55:19.465Z,23.26
2022-08-12T19:58:02.376Z,23.20
2022-08-12T20:00:52.795Z,23.12
2022-08-12T20:03:38.173Z,23.01
2022-08-12T20:06:13.876Z,22.92
2022-08-12T20:08:49.193Z,22.82
2022-08-12T20:12:12.969Z,22.72
2022-08-12T20:14:31.741Z,22.64
2022-08-12T20:17:23.620Z,22.58
2022-08-12T20:20:19.014Z,22.51
2022-08-12T20:23:09.136Z,22.46
2022-08-12T20:26:07.386Z,22.40
2022-08-12T20:28:54.265Z,22.33
2022-08-12T20:31:37.372Z,22.27
2022-08-12T20:34:06.796Z,22.21
2022-08-12T20:36:42.909Z,22.16
2022-08-12T20:39:52.253Z,22.09
2022-08-12T20:42:23.917Z,22.07
2022-08-12T20:45:08.471Z,22.04
2022-08-12T20:48:02.064Z,21.97
2022-08-12T20:50:40.005Z,21.90
2022-08-12T20:53:54.121Z,21.84
2022-08-12T20:56:33.772Z,21.79
2022-08-12T20:59:05.542Z,21.75
2022-08-12T21:01:47.542Z,21.72
2022-08-12T21:04:36.591Z,21.69
2022-08-12T21:07:29.168Z,21.66
2022-08-12T21:10:05.834Z,21.64
2022-08-12T21:12:39.911Z,21.60
2022-08-12T21:15:24.175Z,21.57
2022-08-12T21:18:11.378Z,21.53
2022-08-12T21:20:49.624Z,21.49
2022-08-12T21:23:42.230Z,21.44
2022-08-12T21:26:20.138Z,21.38
2022-08-12T21:28:58.547Z,21.36
2022-08-12T21:32:40.855Z,21.34
2022-08-12T21:34:29.251Z,21.33
2022-08-12T21:37:13.239Z,21.30
2022-08-12T21:40:16.300Z,21.21
2022-08-12T21:43:07.659Z,21.17
2022-08-12T21:46:01.146Z,21.14
2022-08-12T21:48:30.859Z,21.11
2022-08-12T21:51:23.001Z,21.09
2022-08-12T21:54:09.973Z,21.03
2022-08-12T21:56:44.253Z,20.98
2022-08-12T21:59:18.997Z,20.92
2022-08-12T22:01:50.849Z,20.88
2022-08-12T22:04:57.997Z,20.85
2022-08-12T22:08:06.389Z,20.82
2022-08-12T22:10:37.573Z,20.79
2022-08-12T22:14:02.580Z,20.77
2022-08-12T22:16:46.841Z,20.73
2022-08-12T22:19:35.220Z,20.70
2022-08-12T22:22:33.868Z,20.68
2022-08-12T22:25:03.414Z,20.67
2022-08-12T22:27:55.854Z,20.65
2022-08-12T22:31:15.161Z,20.63
2022-08-12T22:33:59.699Z,20.60
2022-08-12T22:36:37.586Z,20.58
2022-08-12T22:39:27.049Z,20.55
2022-08-12T22:42:26.600Z,20.55
2022-08-12T22:45:48.370Z,20.53
2022-08-12T22:48:34.007Z,20.49
2022-08-12T22:51:27.871Z,20.45
2022-08-12T22:54:36.157Z,20.40
2022-08-12T22:57:15.389Z,20.36
2022-08-12T22:59:55.317Z,20.33
2022-08-12T23:02:30.299Z,20.30
2022-08-12T23:05:06.010Z,20.27
2022-08-12T23:08:06.235Z,20.26
2022-08-12T23:11:33.842Z,20.23
2022-08-12T23:14:24.871Z,20.21
2022-08-12T23:17:21.367Z,20.19
2022-08-12T23:20:13.061Z,20.18
2022-08-12T23:23:09.083Z,20.17
2022-08-12T23:26:09.881Z,20.15
2022-08-12T23:29:12.713Z,20.14
2022-08-12T23:32:35.892Z,20.12
2022-08-12T23:35:45.816Z,20.09
2022-08-12T23:40:13.828Z,20.06
2022-08-12T23:43:07.499Z,20.01
2022-08-12T23:46:05.101Z,19.97
2022-08-12T23:49:55.379Z,19.92
2022-08-12T23:52:46.878Z,19.87
2022-08-12T23:55:29.081Z,19.85
2022-08-12T23:58:25.982Z,19.81
